Time;durP1;ratioP1;P1;durP2;ratioP2;P2;SDS_P1;SDS_P2;PMS_P1;PMS_P2;Temp;Humidity;BMP_temperature;BMP_pressure;BME280_temperature;BME280_humidity;BME280_pressure;Samples;Min_cycle;Max_cycle;Signal;HPM_P1;HPM_P2
2022/03/01 00:00:18;;;;;;;31.90;13.50;;;;;;;14.38;62.65;101278.72;5007818;28;20133;-80
2022/03/01 00:02:45;;;;;;;33.43;13.63;;;;;;;14.19;62.81;101263.66;5006736;28;20058;-78
2022/03/01 00:05:13;;;;;;;21.93;12.17;;;;;;;14.29;62.54;101263.63;5011898;28;20050;-79
2022/03/01 00:07:40;;;;;;;40.03;14.03;;;;;;;14.22;62.57;101260.25;5009074;28;20086;-79
2022/03/01 00:10:08;;;;;;;31.47;13.67;;;;;;;14.33;62.26;101272.31;5024069;28;20054;-78
2022/03/01 00:12:35;;;;;;;26.60;13.43;;;;;;;14.41;62.22;101282.94;5013314;28;20084;-79
2022/03/01 00:15:04;;;;;;;37.47;13.77;;;;;;;14.39;61.54;101257.94;5018260;28;20133;-79
2022/03/01 00:17:31;;;;;;;39.10;13.97;;;;;;;14.44;61.39;101257.91;5010118;28;20081;-79
2022/03/01 00:19:58;;;;;;;31.30;13.90;;;;;;;14.49;61.44;101268.25;5015404;28;20541;-79
2022/03/01 00:22:25;;;;;;;32.70;14.77;;;;;;;14.45;61.47;101268.00;5013682;28;20037;-79
2022/03/01 00:24:52;;;;;;;30.17;11.73;;;;;;;14.37;61.56;101274.25;5015230;28;20885;-80
2022/03/01 00:27:19;;;;;;;25.43;12.90;;;;;;;14.26;61.34;101257.72;5007593;28;20087;-81
2022/03/01 00:29:46;;;;;;;42.63;14.73;;;;;;;14.40;61.26;101270.84;5012678;28;20132;-80
2022/03/01 00:32:12;;;;;;;29.73;13.30;;;;;;;14.41;60.93;101254.84;5004019;28;20046;-80
2022/03/01 00:34:39;;;;;;;26.13;13.00;;;;;;;14.35;60.52;101237.16;5020576;28;20049;-79
2022/03/01 00:37:06;;;;;;;25.67;12.90;;;;;;;14.45;60.89;101262.38;5012246;28;20093;-79
2022/03/01 00:39:33;;;;;;;29.60;14.10;;;;;;;14.13;61.20;101220.69;5012534;28;20128;-79
2022/03/01 00:42:00;;;;;;;28.13;12.77;;;;;;;14.35;61.21;101261.59;5013163;28;20125;-77
2022/03/01 00:44:28;;;;;;;33.10;13.07;;;;;;;14.39;61.33;101263.56;5007775;28;20129;-79
2022/03/01 00:46:55;;;;;;;33.10;12.17;;;;;;;14.34;61.65;101257.94;5012903;28;20045;-79
2022/03/01 00:49:22;;;;;;;33.47;13.10;;;;;;;14.29;61.71;101263.63;5007327;28;20057;-79
2022/03/01 00:51:49;;;;;;;25.73;11.80;;;;;;;14.19;61.82;101256.06;5014234;28;20503;-81
2022/03/01 00:54:16;;;;;;;27.67;10.30;;;;;;;13.91;62.11;101212.66;5015048;28;20057;-79
2022/03/01 00:56:44;;;;;;;32.67;12.63;;;;;;;14.12;61.93;101246.25;5010617;28;20090;-79
2022/03/01 00:59:11;;;;;;;16.50;9.20;;;;;;;14.09;61.79;101235.63;5013612;28;20459;-77
2022/03/01 01:01:37;;;;;;;27.43;10.93;;;;;;;13.89;62.00;101198.06;5018931;28;20444;-78
2022/03/01 01:04:07;;;;;;;17.83;10.27;;;;;;;14.00;62.48;101226.94;5010160;28;20097;-79
2022/03/01 01:06:34;;;;;;;23.17;10.90;;;;;;;13.98;62.51;101218.81;5015233;28;20513;-79
2022/03/01 01:09:01;;;;;;;20.07;8.07;;;;;;;13.88;62.85;101218.84;5028085;28;20137;-79
2022/03/01 01:11:27;;;;;;;28.23;11.93;;;;;;;13.85;63.16;101227.00;5018642;28;20085;-79
2022/03/01 01:13:54;;;;;;;20.40;9.67;;;;;;;13.83;63.03;101232.88;5025001;28;20128;-79
2022/03/01 01:16:21;;;;;;;29.10;12.00;;;;;;;13.61;63.04;101201.53;5012518;28;20506;-80
2022/03/01 01:18:48;;;;;;;26.90;12.63;;;;;;;13.96;62.39;101231.44;5017469;28;20116;-79
2022/03/01 01:21:15;;;;;;;28.53;12.53;;;;;;;13.86;61.83;101203.41;5014887;28;20417;-79
2022/03/01 01:23:42;;;;;;;20.80;9.60;;;;;;;13.92;61.77;101211.53;5014159;28;20121;-79
2022/03/01 01:26:09;;;;;;;26.97;12.70;;;;;;;13.96;61.48;101207.00;5019487;28;20057;-79
2022/03/01 01:28:37;;;;;;;11.17;7.87;;;;;;;13.95;61.77;101212.94;5014219;28;20077;-79
2022/03/01 01:31:04;;;;;;;26.10;9.87;;;;;;;13.91;61.99;101209.00;5014168;28;20482;-79
2022/03/01 01:33:31;;;;;;;25.73;11.70;;;;;;;13.89;61.98;101225.31;5011511;28;20050;-79
2022/03/01 01:35:58;;;;;;;21.27;11.23;;;;;;;13.92;61.68;101211.53;5028235;28;20125;-80
2022/03/01 01:38:25;;;;;;;15.97;7.23;;;;;;;14.07;61.62;101233.09;5006942;28;20413;-79
2022/03/01 01:40:52;;;;;;;22.40;11.23;;;;;;;14.05;61.57;101232.53;5004988;28;20498;-80
2022/03/01 01:43:19;;;;;;;20.43;10.50;;;;;;;13.82;61.92;101208.75;5011266;28;20138;-78
2022/03/01 01:45:46;;;;;;;26.67;12.03;;;;;;;14.03;61.79;101245.19;5009342;28;20137;-80
2022/03/01 01:48:13;;;;;;;22.90;11.00;;;;;;;14.10;61.33;101242.91;5006753;28;20081;-79
2022/03/01 01:50:41;;;;;;;22.60;12.17;;;;;;;14.10;61.46;101242.91;5014499;28;20105;-79
2022/03/01 01:53:07;;;;;;;25.03;12.73;;;;;;;14.14;61.36;101241.19;5022104;28;20041;-78
2022/03/01 01:55:35;;;;;;;30.60;12.17;;;;;;;14.10;60.94;101221.28;5012154;28;20586;-79
2022/03/01 01:58:02;;;;;;;28.93;14.60;;;;;;;14.05;61.47;101226.06;4980859;28;20128;-79
2022/03/01 02:00:30;;;;;;;31.53;11.43;;;;;;;14.11;61.12;101230.53;5012147;28;20070;-79
2022/03/01 02:02:58;;;;;;;35.97;13.83;;;;;;;14.13;61.45;101233.91;5012831;28;20201;-79
2022/03/01 02:05:28;;;;;;;23.73;10.70;;;;;;;14.17;61.39;101243.44;5013821;28;20046;-79
2022/03/01 02:07:55;;;;;;;27.33;12.43;;;;;;;14.12;61.72;101235.88;5030547;28;20101;-79
2022/03/01 02:10:26;;;;;;;33.67;13.17;;;;;;;14.01;61.73;101224.97;5027015;28;20050;-80
2022/03/01 02:12:53;;;;;;;32.53;12.03;;;;;;;14.03;61.88;101231.16;5025664;28;20078;-79
2022/03/01 02:15:20;;;;;;;39.10;15.37;;;;;;;14.03;62.14;101245.19;5051973;28;20034;-77
2022/03/01 02:17:47;;;;;;;33.93;13.27;;;;;;;13.93;62.47;101223.59;5051122;28;20056;-77
2022/03/01 02:20:19;;;;;;;24.73;12.80;;;;;;;13.93;62.50;101232.84;5031916;28;20065;-78
2022/03/01 02:22:47;;;;;;;34.67;14.80;;;;;;;14.04;62.17;101232.81;5023192;28;20076;-79
2022/03/01 02:25:14;;;;;;;33.57;14.87;;;;;;;14.11;61.98;101233.34;5013385;28;20126;-77
2022/03/01 02:27:41;;;;;;;24.07;12.13;;;;;;;14.15;61.54;101223.22;4998702;28;20125;-79
2022/03/01 02:30:09;;;;;;;26.27;13.63;;;;;;;14.27;61.14;101234.94;5009017;28;20073;-79
2022/03/01 02:32:38;;;;;;;31.93;14.53;;;;;;;14.07;61.29;101192.94;5013611;28;20077;-78
2022/03/01 02:35:06;;;;;;;28.03;14.57;;;;;;;14.39;60.94;101232.66;5010781;28;20074;-80
2022/03/01 02:37:33;;;;;;;25.80;13.37;;;;;;;14.44;60.88;101237.41;5009763;28;20092;-79
2022/03/01 02:40:01;;;;;;;23.60;10.90;;;;;;;14.23;60.48;101208.56;5028903;28;20129;-78
2022/03/01 02:42:30;;;;;;;24.07;11.60;;;;;;;14.38;60.44;101213.25;5011651;28;20129;-79
2022/03/01 02:44:58;;;;;;;27.23;11.70;;;;;;;14.59;60.28;101242.94;5003389;28;20077;-78
2022/03/01 02:47:26;;;;;;;24.93;12.43;;;;;;;14.65;60.12;101260.63;5012545;28;20081;-80
2022/03/01 02:49:52;;;;;;;23.83;13.10;;;;;;;14.52;59.90;101230.34;5013744;28;20526;-78
2022/03/01 02:52:19;;;;;;;23.27;12.30;;;;;;;14.72;60.06;101263.94;5010224;28;20085;-79
2022/03/01 02:54:46;;;;;;;28.00;13.87;;;;;;;14.52;59.89;101222.75;5009332;28;20145;-79
2022/03/01 02:57:13;;;;;;;29.67;13.90;;;;;;;14.83;59.85;101257.13;5009576;28;20096;-77
2022/03/01 02:59:40;;;;;;;32.00;14.80;;;;;;;14.82;59.74;101255.44;5012380;28;20088;-78
2022/03/01 03:02:17;;;;;;;31.63;14.70;;;;;;;14.91;59.52;101261.31;5012100;28;20601;-77
2022/03/01 03:04:46;;;;;;;31.13;13.33;;;;;;;14.70;59.48;101224.06;5010588;28;20465;-79
2022/03/01 03:07:13;;;;;;;37.87;14.17;;;;;;;14.95;59.43;101255.94;5004414;28;20124;-78
2022/03/01 03:09:41;;;;;;;28.10;15.73;;;;;;;14.67;59.43;101216.22;5009722;28;20478;-78
2022/03/01 03:12:11;;;;;;;24.53;13.27;;;;;;;14.74;59.41;101230.78;5013070;28;20133;-78
2022/03/01 03:14:39;;;;;;;35.47;16.83;;;;;;;14.67;59.27;101213.41;5013025;28;20115;-78
2022/03/01 03:17:06;;;;;;;32.40;14.20;;;;;;;14.81;59.01;101236.06;5014185;28;20129;-79
2022/03/01 03:19:33;;;;;;;27.63;13.43;;;;;;;14.99;59.07;101265.47;5012206;28;20098;-79
2022/03/01 03:22:00;;;;;;;30.73;14.23;;;;;;;15.02;58.96;101270.50;5015636;28;20084;-79
2022/03/01 03:24:27;;;;;;;39.33;14.23;;;;;;;15.04;59.01;101262.59;5026866;28;20117;-78
2022/03/01 03:26:54;;;;;;;33.40;13.70;;;;;;;15.00;58.76;101245.47;5013632;28;20137;-79
2022/03/01 03:29:21;;;;;;;28.77;14.07;;;;;;;15.12;58.65;101261.97;5014248;28;20080;-81
2022/03/01 03:31:49;;;;;;;31.17;13.50;;;;;;;15.15;58.85;101258.59;5005965;28;20104;-79
2022/03/01 03:34:15;;;;;;;28.33;13.83;;;;;;;15.15;58.55;101253.78;5011913;28;20129;-79
2022/03/01 03:36:43;;;;;;;26.47;13.97;;;;;;;15.05;58.81;101242.63;5013039;28;20770;-79
2022/03/01 03:39:11;;;;;;;28.27;13.27;;;;;;;15.13;58.67;101243.97;5012126;28;20077;-79
2022/03/01 03:41:39;;;;;;;33.17;13.53;;;;;;;15.06;58.85;101227.41;5007744;28;20086;-79
2022/03/01 03:44:06;;;;;;;36.97;13.90;;;;;;;15.17;58.87;101261.91;5006006;28;20073;-78
2022/03/01 03:46:34;;;;;;;30.70;12.73;;;;;;;15.14;59.15;101259.69;5027291;28;20115;-79
2022/03/01 03:49:02;;;;;;;31.43;13.93;;;;;;;14.83;59.15;101212.13;5011134;28;20060;-79
2022/03/01 03:51:29;;;;;;;35.27;12.93;;;;;;;15.00;59.36;101248.28;5015940;28;20053;-79
2022/03/01 03:53:56;;;;;;;37.00;14.27;;;;;;;14.68;59.34;101196.22;5013261;28;20104;-78
2022/03/01 03:56:23;;;;;;;44.73;14.53;;;;;;;14.95;59.87;101239.06;5012987;28;20506;-78
2022/03/01 03:58:50;;;;;;;36.57;13.97;;;;;;;14.87;59.96;101235.75;5010718;28;20123;-79
2022/03/01 04:01:17;;;;;;;36.10;11.00;;;;;;;14.59;60.23;101199.94;5009316;28;20128;-79
2022/03/01 04:03:45;;;;;;;32.40;12.23;;;;;;;14.79;60.47;101244.78;5013495;28;20077;-78
2022/03/01 04:06:12;;;;;;;35.03;11.77;;;;;;;14.72;60.28;101230.22;5011897;28;20042;-78
2022/03/01 04:08:38;;;;;;;36.00;12.27;;;;;;;14.69;60.08;101225.16;5008401;28;20128;-79
2022/03/01 04:11:05;;;;;;;25.83;11.97;;;;;;;14.88;60.24;101250.63;5012839;28;20084;-78
2022/03/01 04:13:33;;;;;;;29.70;11.47;;;;;;;14.84;60.58;101244.75;5004982;28;20100;-78
2022/03/01 04:16:00;;;;;;;31.47;10.70;;;;;;;14.82;60.65;101244.19;5007192;28;20053;-78
2022/03/01 04:18:27;;;;;;;29.93;11.03;;;;;;;14.79;60.71;101241.97;5011135;28;20406;-79
2022/03/01 04:20:54;;;;;;;29.50;12.07;;;;;;;14.85;60.70;101257.69;5018191;28;20049;-79
2022/03/01 04:23:21;;;;;;;32.97;12.77;;;;;;;14.85;60.69;101254.03;5012978;28;20133;-79
2022/03/01 04:25:48;;;;;;;33.23;11.33;;;;;;;14.85;60.79;101249.25;5012754;28;20093;-78
2022/03/01 04:28:14;;;;;;;33.87;14.00;;;;;;;14.85;60.75;101259.66;5025112;28;20081;-79
2022/03/01 04:30:41;;;;;;;34.67;12.17;;;;;;;14.83;60.90;101247.84;5012112;28;20151;-79
2022/03/01 04:33:08;;;;;;;30.20;11.60;;;;;;;14.67;61.08;101249.94;5012911;28;20077;-78
2022/03/01 04:35:35;;;;;;;35.33;11.77;;;;;;;14.48;61.26;101229.22;5013701;28;20076;-79
2022/03/01 04:38:02;;;;;;;21.47;10.60;;;;;;;14.57;61.16;101247.19;5003271;28;20137;-78
2022/03/01 04:40:29;;;;;;;33.03;12.13;;;;;;;14.29;61.17;101213.03;5010865;28;20078;-79
2022/03/01 04:42:57;;;;;;;28.57;12.30;;;;;;;14.44;61.15;101255.09;5009178;28;20077;-79
2022/03/01 04:45:23;;;;;;;31.50;14.07;;;;;;;14.31;61.28;101230.44;5012871;28;20550;-78
2022/03/01 04:47:51;;;;;;;32.87;12.20;;;;;;;14.32;61.82;101251.78;5007026;28;20129;-77
2022/03/01 04:50:18;;;;;;;25.93;12.07;;;;;;;14.17;61.77;101226.59;5011681;28;20100;-79
2022/03/01 04:52:45;;;;;;;25.17;11.23;;;;;;;14.16;62.04;101230.53;5014669;28;20081;-77
2022/03/01 04:55:12;;;;;;;35.20;13.90;;;;;;;14.38;61.65;101249.78;5013080;28;20132;-78
2022/03/01 04:57:39;;;;;;;39.20;14.13;;;;;;;14.39;61.67;101241.09;5010593;28;20133;-78
2022/03/01 05:00:10;;;;;;;42.23;12.77;;;;;;;14.31;62.12;101250.09;5015516;28;20049;-77
2022/03/01 05:02:42;;;;;;;30.33;13.00;;;;;;;14.35;61.73;101241.94;5015153;28;20112;-77
2022/03/01 05:05:12;;;;;;;34.20;13.47;;;;;;;14.23;61.97;101222.63;5006841;28;20053;-79
2022/03/01 05:07:47;;;;;;;30.13;12.93;;;;;;;14.37;61.74;101242.50;5009656;28;20077;-78
2022/03/01 05:10:19;;;;;;;43.73;13.20;;;;;;;14.29;61.66;101234.66;5006683;28;20046;-79
2022/03/01 05:12:55;;;;;;;24.87;12.30;;;;;;;14.21;61.81;101227.69;5035736;28;20045;-78
2022/03/01 05:15:26;;;;;;;30.43;12.47;;;;;;;14.16;62.10;101217.31;5039701;28;20042;-77
2022/03/01 05:17:54;;;;;;;35.33;12.43;;;;;;;14.21;62.51;101238.91;5019303;28;20137;-78
2022/03/01 05:20:22;;;;;;;35.07;11.33;;;;;;;14.10;62.72;101234.47;5014951;28;20074;-80
2022/03/01 05:22:49;;;;;;;30.80;11.93;;;;;;;14.07;63.01;101232.25;5018658;28;20133;-79
2022/03/01 05:25:18;;;;;;;29.43;10.87;;;;;;;13.91;63.48;101218.28;5015406;28;20125;-80
2022/03/01 05:27:47;;;;;;;30.17;11.37;;;;;;;13.90;63.74;101221.34;5029421;28;20057;-79
2022/03/01 05:30:15;;;;;;;31.13;8.50;;;;;;;13.90;63.98;101229.78;5013689;28;20112;-78
2022/03/01 05:32:46;;;;;;;26.60;9.40;;;;;;;13.84;64.43;101222.50;5028085;28;20132;-78
2022/03/01 05:35:18;;;;;;;32.80;10.40;;;;;;;13.69;64.66;101209.38;5012030;28;20072;-79
2022/03/01 05:37:47;;;;;;;25.57;9.00;;;;;;;13.70;64.76;101206.25;5009576;28;20141;-79
2022/03/01 05:40:14;;;;;;;11.85;6.93;;;;;;;13.75;64.69;101216.66;5014894;28;20396;-78
2022/03/01 05:42:41;;;;;;;21.97;10.10;;;;;;;13.75;64.83;101220.28;5011211;28;20129;-77
2022/03/01 05:45:09;;;;;;;22.80;9.93;;;;;;;13.70;64.75;101220.28;5005491;28;20073;-78
2022/03/01 05:47:36;;;;;;;26.40;9.33;;;;;;;13.48;65.03;101203.81;5010935;28;20137;-78
2022/03/01 05:50:03;;;;;;;24.23;10.23;;;;;;;13.55;65.58;101220.34;5004260;28;20069;-78
2022/03/01 05:52:31;;;;;;;21.03;8.67;;;;;;;13.45;65.32;101201.56;5016621;28;20518;-78
2022/03/01 05:54:59;;;;;;;22.13;10.23;;;;;;;13.38;65.34;101206.63;5022539;28;20168;-78
2022/03/01 05:57:28;;;;;;;24.07;11.90;;;;;;;13.54;64.96;101212.19;5020309;28;20137;-77
2022/03/01 05:59:56;;;;;;;23.80;10.60;;;;;;;13.42;65.00;101190.91;5013333;28;20146;-78
2022/03/01 06:02:24;;;;;;;21.00;10.20;;;;;;;13.64;65.01;101226.19;5017127;28;20050;-79
2022/03/01 06:04:52;;;;;;;28.37;12.20;;;;;;;13.69;64.63;101226.22;5018570;28;20050;-79
2022/03/01 06:07:19;;;;;;;26.00;10.47;;;;;;;13.63;64.85;101205.72;5014063;28;20073;-77
2022/03/01 06:09:47;;;;;;;27.50;10.53;;;;;;;13.42;64.92;101182.50;5011162;28;20469;-78
2022/03/01 06:12:14;;;;;;;24.53;10.13;;;;;;;13.42;65.27;101187.28;5021644;28;20576;-79
2022/03/01 06:14:40;;;;;;;24.57;11.23;;;;;;;13.56;65.04;101215.56;5008893;28;20478;-79
2022/03/01 06:17:07;;;;;;;18.30;9.63;;;;;;;13.50;65.39;101211.94;5017944;28;20133;-78
2022/03/01 06:19:34;;;;;;;16.80;7.77;;;;;;;13.38;65.94;101217.84;5019338;28;20128;-78
2022/03/01 06:22:02;;;;;;;21.03;8.67;;;;;;;13.40;65.83;101218.44;5015001;28;20072;-77
2022/03/01 06:24:28;;;;;;;33.40;12.83;;;;;;;13.31;65.85;101200.47;5018386;28;20125;-79
2022/03/01 06:26:55;;;;;;;29.03;10.27;;;;;;;13.40;66.02;101206.34;5031147;28;20133;-78
2022/03/01 06:29:22;;;;;;;24.23;10.60;;;;;;;13.45;65.80;101207.19;5016239;28;20549;-77
2022/03/01 06:31:49;;;;;;;22.37;10.97;;;;;;;13.38;66.26;101211.41;5012683;28;20092;-79
2022/03/01 06:34:16;;;;;;;23.27;9.07;;;;;;;13.30;66.37;101204.41;5012524;28;20132;-79
2022/03/01 06:36:44;;;;;;;16.23;7.80;;;;;;;13.22;66.54;101196.53;5010391;28;20050;-79
2022/03/01 06:39:11;;;;;;;20.37;9.33;;;;;;;13.05;66.75;101172.41;5019963;28;20083;-77
2022/03/01 06:41:38;;;;;;;27.07;11.07;;;;;;;13.23;66.65;101201.00;5011064;28;20481;-78
2022/03/01 06:44:05;;;;;;;15.33;8.03;;;;;;;12.95;66.31;101161.22;5015365;28;20073;-77
2022/03/01 06:46:32;;;;;;;22.67;9.50;;;;;;;13.10;66.42;101179.19;5017773;28;20069;-79
2022/03/01 06:48:59;;;;;;;22.67;9.73;;;;;;;13.13;66.40;101184.19;5030321;28;20498;-77
2022/03/01 06:51:25;;;;;;;26.23;10.13;;;;;;;13.25;66.22;101205.25;5017026;28;20137;-78
2022/03/01 06:53:52;;;;;;;27.13;11.10;;;;;;;13.04;66.34;101176.34;5016179;28;20100;-78
2022/03/01 06:56:19;;;;;;;26.20;12.07;;;;;;;13.07;66.32;101162.91;5012899;28;20054;-78
2022/03/01 06:58:47;;;;;;;24.83;11.60;;;;;;;12.98;66.11;101159.81;5027456;28;20054;-78
2022/03/01 07:01:15;;;;;;;28.57;11.23;;;;;;;13.27;66.12;101197.41;5031439;28;20046;-78
2022/03/01 07:03:42;;;;;;;19.43;9.63;;;;;;;13.20;66.21;101196.81;5013712;28;20414;-78
2022/03/01 07:06:10;;;;;;;17.40;9.63;;;;;;;13.13;66.27;101187.00;5013916;28;20164;-77
2022/03/01 07:08:37;;;;;;;13.30;7.57;;;;;;;12.89;66.54;101162.38;5011709;28;20068;-77
2022/03/01 07:11:04;;;;;;;18.43;9.67;;;;;;;13.00;66.31;101183.66;5012086;28;20536;-79
2022/03/01 07:13:31;;;;;;;24.60;12.50;;;;;;;13.18;66.21;101206.63;5012544;28;20128;-79
2022/03/01 07:15:58;;;;;;;17.63;8.90;;;;;;;12.94;66.28;101181.13;4994349;28;20141;-79
2022/03/01 07:18:25;;;;;;;30.10;10.80;;;;;;;13.24;66.04;101219.56;5011024;28;20481;-79
2022/03/01 07:20:54;;;;;;;18.00;8.03;;;;;;;13.18;65.71;101212.25;5006947;28;20117;-78
2022/03/01 07:23:22;;;;;;;16.00;8.83;;;;;;;13.05;65.92;101192.06;4998924;28;20371;-78
2022/03/01 07:25:48;;;;;;;21.90;8.50;;;;;;;13.22;65.72;101218.97;5016853;28;20581;-78
2022/03/01 07:28:15;;;;;;;23.47;9.63;;;;;;;13.16;65.73;101217.28;5015764;28;20070;-78
2022/03/01 07:30:42;;;;;;;24.03;9.60;;;;;;;13.19;65.65;101231.56;5030984;28;20081;-80
2022/03/01 07:33:18;;;;;;;29.77;10.03;;;;;;;13.31;65.20;101225.72;5010484;28;20084;-83
2022/03/01 07:35:45;;;;;;;23.80;9.93;;;;;;;13.05;65.38;101186.44;5036147;28;20136;-82
2022/03/01 07:38:13;;;;;;;23.70;11.03;;;;;;;13.25;65.45;101227.69;5030312;28;20168;-83
2022/03/01 07:40:39;;;;;;;22.43;10.13;;;;;;;13.24;65.24;101225.19;5011049;28;20073;-81
2022/03/01 07:43:07;;;;;;;17.67;9.37;;;;;;;13.25;65.25;101238.06;5013982;28;20586;-81
2022/03/01 07:45:35;;;;;;;17.17;9.67;;;;;;;13.20;65.29;101229.63;5012433;28;20522;-79
2022/03/01 07:48:03;;;;;;;28.83;9.97;;;;;;;13.39;64.73;101243.94;5020094;28;20921;-84
2022/03/01 07:50:31;;;;;;;21.57;9.30;;;;;;;13.41;64.55;101242.53;5012478;28;20053;-85
2022/03/01 07:53:01;;;;;;;20.53;9.23;;;;;;;13.21;64.70;101220.94;5019233;28;20077;-82
2022/03/01 07:55:29;;;;;;;17.40;8.02;;;;;;;13.39;64.46;101243.94;5016378;28;20466;-85
2022/03/01 07:57:56;;;;;;;18.83;8.30;;;;;;;13.19;64.78;101222.31;5005359;28;20054;-87
2022/03/01 08:00:24;;;;;;;17.57;7.93;;;;;;;13.25;64.74;101235.25;5010366;28;20081;-92
2022/03/01 08:02:52;;;;;;;22.40;9.60;;;;;;;13.11;65.01;101234.13;5011638;28;20054;-84
2022/03/01 08:05:19;;;;;;;7.33;4.60;;;;;;;13.08;65.41;101243.94;5016535;28;20042;-85
2022/03/01 08:07:49;;;;;;;9.70;4.40;;;;;;;12.88;65.56;101219.53;5007986;28;20060;-86
2022/03/01 08:10:16;;;;;;;11.90;4.40;;;;;;;12.74;65.67;101216.44;5015596;28;20042;-85
2022/03/01 08:12:42;;;;;;;3.27;2.13;;;;;;;12.78;66.24;101245.59;5032764;28;20033;-86
2022/03/01 08:15:10;;;;;;;10.80;5.23;;;;;;;12.77;66.28;101246.72;5035831;28;20044;-86
2022/03/01 08:17:46;;;;;;;8.83;4.70;;;;;;;12.66;66.29;101235.78;5034532;28;20048;-86
2022/03/01 08:20:13;;;;;;;10.53;5.40;;;;;;;12.66;66.68;101242.22;5029916;28;20037;-83
2022/03/01 08:22:40;;;;;;;5.90;4.43;;;;;;;12.69;66.46;101224.84;5047695;28;20049;-84
2022/03/01 08:25:08;;;;;;;19.93;10.07;;;;;;;12.69;66.33;101232.44;5031194;28;20045;-86
2022/03/01 08:27:35;;;;;;;12.03;5.97;;;;;;;12.66;66.33;101221.78;5026997;28;20801;-84
2022/03/01 08:30:05;;;;;;;15.75;7.45;;;;;;;12.81;66.30;101255.41;5046856;28;20053;-84
2022/03/01 08:32:32;;;;;;;25.07;9.03;;;;;;;12.87;66.06;101265.50;5018075;28;20073;-86
2022/03/01 08:34:59;;;;;;;24.40;7.50;;;;;;;12.74;66.03;101243.63;5021120;28;20045;-85
2022/03/01 08:37:26;;;;;;;22.07;9.00;;;;;;;12.87;66.10;101265.50;5027478;28;20422;-89
2022/03/01 08:39:56;;;;;;;18.97;8.97;;;;;;;13.23;64.79;101269.19;5032781;28;20049;-87
2022/03/01 08:42:23;;;;;;;8.98;4.63;;;;;;;13.31;64.38;101259.38;5023265;28;20077;-83
2022/03/01 08:44:50;;;;;;;17.43;8.10;;;;;;;13.31;64.40;101262.19;5019376;28;20129;-83
2022/03/01 08:47:16;;;;;;;20.13;8.47;;;;;;;13.22;63.97;101222.59;5022638;28;20035;-91
2022/03/01 08:49:43;;;;;;;16.23;8.10;;;;;;;13.44;63.82;101261.63;5031278;28;20076;-87
2022/03/01 08:52:10;;;;;;;17.53;8.07;;;;;;;13.31;63.95;101224.88;5015241;28;20119;-87
2022/03/01 08:54:37;;;;;;;15.40;8.27;;;;;;;12.92;64.55;101186.16;5019702;28;20053;-89
2022/03/01 08:57:04;;;;;;;9.77;4.93;;;;;;;13.24;64.72;101251.25;5014621;28;20077;-92
2022/03/01 08:59:31;;;;;;;9.97;4.80;;;;;;;13.25;65.04;101254.91;5016725;28;20467;-89
2022/03/01 09:02:01;;;;;;;19.30;8.77;;;;;;;13.35;64.36;101249.28;5017776;28;20046;-84
2022/03/01 09:04:28;;;;;;;24.30;9.80;;;;;;;13.37;64.45;101244.25;5047328;28;20086;-89
2022/03/01 09:06:55;;;;;;;14.23;5.87;;;;;;;13.51;64.45;101264.97;5039483;28;20085;-91
2022/03/01 09:09:21;;;;;;;24.70;8.90;;;;;;;13.55;64.05;101259.63;5031639;28;20050;-89
2022/03/01 09:11:48;;;;;;;12.07;6.93;;;;;;;13.62;64.27;101270.56;5031618;28;20058;-91
2022/03/01 09:14:15;;;;;;;8.80;4.40;;;;;;;13.63;64.18;101266.63;5032740;28;20050;-89
2022/03/01 09:16:43;;;;;;;11.10;5.73;;;;;;;13.86;63.62;101284.84;5032192;28;20093;-90
2022/03/01 09:19:10;;;;;;;9.67;4.53;;;;;;;13.61;63.83;101254.88;5039977;28;20049;-90
2022/03/01 09:21:38;;;;;;;18.67;6.50;;;;;;;13.92;63.40;101286.50;5022601;28;20080;-89
2022/03/01 09:24:05;;;;;;;16.70;8.07;;;;;;;13.81;63.51;101273.59;5017220;28;20495;-88
2022/03/01 09:26:32;;;;;;;19.53;8.10;;;;;;;13.72;63.55;101248.09;5032118;28;20079;-85
2022/03/01 09:28:58;;;;;;;15.47;7.47;;;;;;;13.91;63.12;101273.56;5032949;28;20026;-84
2022/03/01 09:31:25;;;;;;;15.20;7.63;;;;;;;14.18;62.75;101287.25;5040736;28;20037;-89
2022/03/01 09:33:52;;;;;;;16.63;8.73;;;;;;;14.24;62.45;101269.25;5042405;28;20054;-89
2022/03/01 09:36:19;;;;;;;13.13;7.10;;;;;;;14.83;62.54;101290.03;5039633;28;20027;-87
2022/03/01 09:38:46;;;;;;;13.27;6.93;;;;;;;15.14;61.89;101285.00;5041425;28;20052;-89
2022/03/01 09:41:14;;;;;;;17.03;8.07;;;;;;;15.32;61.60;101287.13;5045419;28;20348;-89
2022/03/01 09:43:41;;;;;;;15.90;7.40;;;;;;;15.72;60.86;101287.06;5039627;28;20044;-88
2022/03/01 09:46:14;;;;;;;16.95;8.35;;;;;;;15.83;60.43;101297.09;5035758;28;20093;-90
2022/03/01 09:48:41;;;;;;;20.48;8.25;;;;;;;15.76;59.81;101283.38;5039231;28;20045;-89
2022/03/01 09:51:09;;;;;;;20.05;8.88;;;;;;;16.56;59.02;101298.75;5039394;28;20032;-87
2022/03/01 09:53:36;;;;;;;14.82;6.85;;;;;;;16.89;58.60;101279.97;5040450;28;20046;-90
2022/03/01 09:56:04;;;;;;;17.65;7.53;;;;;;;17.14;57.90;101275.06;5039120;28;20045;-88
2022/03/01 09:58:31;;;;;;;11.40;6.82;;;;;;;17.66;57.29;101287.97;5039826;28;20102;-90
2022/03/01 10:00:58;;;;;;;17.15;7.03;;;;;;;17.71;56.33;101268.13;5033094;28;20045;-89
2022/03/01 10:03:28;;;;;;;9.98;4.80;;;;;;;17.35;55.92;101233.22;5031072;28;20191;-88
2022/03/01 10:06:06;;;;;;;20.25;7.63;;;;;;;16.92;55.09;101231.41;5038694;28;20061;-88
2022/03/01 10:08:33;;;;;;;21.52;8.98;;;;;;;16.86;54.87;101252.38;5033984;28;20050;-88
2022/03/01 10:11:00;;;;;;;13.05;5.28;;;;;;;16.53;55.47;101214.75;5028925;28;20065;-88
2022/03/01 10:13:30;;;;;;;17.77;6.20;;;;;;;16.60;55.61;101226.50;5046804;28;20053;-87
2022/03/01 10:16:04;;;;;;;11.98;6.57;;;;;;;17.13;55.85;101239.50;5035083;28;20105;-87
2022/03/01 10:18:35;;;;;;;15.15;7.43;;;;;;;17.64;55.13;101250.75;5026393;28;20113;-90
2022/03/01 10:21:05;;;;;;;17.30;7.70;;;;;;;17.92;54.45;101250.81;5016116;28;20128;-90
2022/03/01 10:23:33;;;;;;;13.38;8.10;;;;;;;18.08;53.35;101246.50;5029363;28;20128;-89
2022/03/01 10:26:23;;;;;;;12.60;5.75;;;;;;;18.44;53.32;101243.75;5031521;28;20042;-85
2022/03/01 10:28:53;;;;;;;12.95;6.68;;;;;;;18.66;52.71;101265.59;5047250;28;20049;-86
2022/03/01 10:31:24;;;;;;;16.95;8.35;;;;;;;18.62;51.87;101270.22;5035625;28;20045;-87
2022/03/01 10:34:00;;;;;;;10.85;6.45;;;;;;;18.81;51.97;101264.44;5036564;28;20092;-89
2022/03/01 10:36:36;;;;;;;18.90;8.43;;;;;;;18.95;51.44;101258.75;5025282;28;20042;-81
2022/03/01 10:39:13;;;;;;;12.40;6.63;;;;;;;18.64;51.10;101205.69;5026719;28;20068;-81
2022/03/01 10:41:45;;;;;;;15.13;7.00;;;;;;;18.90;50.70;101247.53;5027647;28;20042;-80
2022/03/01 10:44:25;;;;;;;17.15;6.93;;;;;;;19.04;50.77;101256.81;5023181;28;20054;-80
2022/03/01 10:46:56;;;;;;;13.57;5.82;;;;;;;18.83;50.60;101253.63;5019970;28;20046;-80
2022/03/01 10:49:29;;;;;;;12.15;4.25;;;;;;;18.54;50.52;101247.50;5015101;28;20073;-81
2022/03/01 10:52:05;;;;;;;10.98;5.10;;;;;;;18.22;50.70;101236.03;5025569;28;20080;-81
2022/03/01 10:54:49;;;;;;;11.82;5.53;;;;;;;17.97;50.85;101243.03;5012525;28;20120;-81
2022/03/01 10:57:22;;;;;;;12.32;4.00;;;;;;;17.99;51.07;101240.75;5014422;28;20081;-81
2022/03/01 10:59:50;;;;;;;12.02;5.28;;;;;;;17.90;50.82;101231.31;5018928;28;20057;-81
2022/03/01 11:02:18;;;;;;;5.93;2.45;;;;;;;17.80;51.04;101219.41;5020942;28;20045;-81
2022/03/01 11:04:48;;;;;;;9.63;3.60;;;;;;;17.80;51.31;101219.41;5016693;28;20041;-81
2022/03/01 11:07:16;;;;;;;6.07;2.85;;;;;;;17.89;51.61;101229.66;5017589;28;20089;-81
2022/03/01 11:09:45;;;;;;;7.72;2.35;;;;;;;17.82;51.78;101222.75;5014886;28;20076;-78
2022/03/01 11:12:12;;;;;;;9.18;3.22;;;;;;;17.58;52.08;101218.09;5038804;28;20053;-79
2022/03/01 11:14:45;;;;;;;6.97;2.67;;;;;;;17.57;51.88;101215.56;5050504;28;20037;-80
2022/03/01 11:17:38;;;;;;;5.35;2.45;;;;;;;17.35;52.02;101190.88;5023923;28;20045;-79